Airfield :
LOGIN :

Register | Disclaimer

   EN    FR    IT 

 










Legend :    VFR   Marginal VFR   IFR   Intensive IFR   Very Intensive IFR
Visi :
Ceiling :
>= 8 km
>= 3000ft
5 to 8 km
1000 to 3000 ft
1500m to 5 km
500 to 1000 ft
800 to 1500m
200 to 500 ft
< 800m
< 200 ft
Symbols :   Thunderstorms  Fog  Heavy snow  Heavy precipitations  Wind > 20 kt
SIGMETs :     Misc.  Thunderstorms  Icing  Turbulence  Mountain Waves  Volcanic Ashes







- Airport Elevation : 1367 ft
- IATA code : FDH


EDNY - Friedrichshafen

CURRENT METAR :
  • 190220Z AUTO VRB02KT 2100 1400/ R24/P2000N -SN BR OVC004 00/00 Q1019

EXPIRED METARs :
  • 190150Z AUTO 23002KT 1300 0900/ R24/P2000N -SN OVC004 00/M00 Q1020
  • 190120Z AUTO 26004KT 240V300 1300 0900/ R24/P2000N -SN SCT003 OVC005 00/M00 Q1020
  • 190050Z AUTO 25006KT 2100 1300/ R24/P2000N -SN FEW003 SCT007 OVC012 00/M00 Q1020
  • 190020Z AUTO 28004KT 230V340 6000 2300/ -RASN SCT008 BKN014 OVC021 01/M00 Q1020
  • 182350Z AUTO 25010KT 230V310 9999 FEW027 SCT031 OVC036 04/M01 Q1021

TAF AMD TAF EDNY
Valid from the 19 at 02:00 until the 20 at 00:00 UTC


190201Z 1902/1924 25010KT 9999 FEW012 BKN030
PROB40
TEMPO 1902/1910 2000 SNRA BKN009
PROB30
TEMPO 1902/1907 1200 SN BKN004
PROB30
TEMPO 1910/1917 30015G25KT SHRASN BKN012TCU
BECMG 1917/1920 26005KT
No reported NOTAMs for that airfield.



MET'MAP, your aeronautical weather chart ! - Copyright ORBIFLY December 2007 - Disclaimer

ORBIFLY MET'MAP TEAM :

Programming & Development : Alexandra Zaïnal
Concept & Development : Baudouin d'Aumeries
Co-Development & Prog : Marc-Olivier Méhu
Technical & hardware support : Manuel Goepfert

Contact : metmap@orbifly.com




SOURCES & CREDITS :

   NOAA